createdAt,value
2024-02-02T00:00:19.568Z,2.40
2024-02-02T00:02:49.467Z,2.34
2024-02-02T00:05:21.691Z,2.28
2024-02-02T00:07:52.275Z,2.33
2024-02-02T00:10:21.944Z,2.32
2024-02-02T00:12:52.188Z,2.25
2024-02-02T00:15:21.441Z,2.18
2024-02-02T00:17:51.029Z,2.16
2024-02-02T00:20:22.126Z,2.27
2024-02-02T00:22:53.987Z,2.29
2024-02-02T00:25:25.498Z,2.35
2024-02-02T00:27:55.147Z,2.44
2024-02-02T00:30:25.624Z,2.48
2024-02-02T00:32:55.296Z,2.37
2024-02-02T00:35:26.295Z,2.59
2024-02-02T00:37:56.530Z,2.81
2024-02-02T00:40:27.515Z,2.83
2024-02-02T00:42:56.805Z,3.00
2024-02-02T00:45:26.540Z,2.96
2024-02-02T00:47:56.696Z,2.95
2024-02-02T00:50:27.929Z,2.97
2024-02-02T00:52:57.336Z,2.97
2024-02-02T00:55:28.250Z,2.95
2024-02-02T00:57:57.619Z,2.96
2024-02-02T01:00:27.684Z,3.01
2024-02-02T01:02:58.024Z,3.09
2024-02-02T01:05:30.443Z,3.08
2024-02-02T01:08:00.579Z,3.12
2024-02-02T01:10:30.625Z,3.21
2024-02-02T01:13:00.418Z,3.52
2024-02-02T01:15:30.810Z,3.79
2024-02-02T01:18:00.566Z,3.95
2024-02-02T01:20:31.822Z,4.01
2024-02-02T01:23:01.421Z,4.10
2024-02-02T01:25:31.322Z,4.13
2024-02-02T01:28:01.784Z,4.06
2024-02-02T01:30:32.323Z,4.06
2024-02-02T01:33:02.101Z,4.08
2024-02-02T01:35:34.445Z,4.05
2024-02-02T01:38:04.142Z,3.99
2024-02-02T01:40:34.222Z,4.08
2024-02-02T01:43:04.931Z,4.08
2024-02-02T01:45:37.692Z,4.06
2024-02-02T01:48:10.597Z,4.12
2024-02-02T01:50:42.396Z,4.13
2024-02-02T01:53:12.400Z,4.19
2024-02-02T01:55:42.171Z,4.10
2024-02-02T01:58:11.658Z,4.09
2024-02-02T02:00:41.218Z,3.93
2024-02-02T02:03:11.089Z,3.94
2024-02-02T02:05:45.596Z,3.95
2024-02-02T02:08:15.384Z,3.90
2024-02-02T02:10:47.310Z,3.98
2024-02-02T02:13:16.964Z,4.05
2024-02-02T02:15:47.012Z,4.04
2024-02-02T02:18:16.745Z,4.14
2024-02-02T02:20:56.928Z,4.20
2024-02-02T02:23:30.347Z,4.23
2024-02-02T02:26:02.118Z,4.25
2024-02-02T02:28:31.708Z,4.30
2024-02-02T02:31:01.595Z,4.25
2024-02-02T02:33:31.281Z,4.28
2024-02-02T02:36:00.575Z,4.41
2024-02-02T02:38:31.613Z,4.43
2024-02-02T02:41:01.932Z,4.46
2024-02-02T02:43:32.375Z,4.56
2024-02-02T02:46:01.676Z,4.58
2024-02-02T02:48:31.534Z,4.63
2024-02-02T02:51:01.907Z,4.71
2024-02-02T02:53:32.942Z,4.69
2024-02-02T02:56:02.550Z,4.64
2024-02-02T02:58:32.952Z,4.60
2024-02-02T03:01:02.239Z,4.58
2024-02-02T03:03:32.448Z,4.53
2024-02-02T03:06:02.654Z,4.54
2024-02-02T03:08:33.505Z,4.56
2024-02-02T03:11:02.756Z,4.53
2024-02-02T03:13:32.013Z,4.51
2024-02-02T03:16:02.915Z,4.45
2024-02-02T03:18:32.501Z,4.39
2024-02-02T03:21:01.977Z,4.26
2024-02-02T03:23:33.277Z,4.21
2024-02-02T03:26:02.924Z,4.15
2024-02-02T03:28:32.352Z,4.05
2024-02-02T03:31:02.161Z,3.93
2024-02-02T03:33:31.588Z,3.88
2024-02-02T03:36:01.040Z,3.85
2024-02-02T03:38:30.829Z,3.84
2024-02-02T03:41:01.748Z,3.84
2024-02-02T03:43:31.252Z,3.82
2024-02-02T03:46:01.152Z,3.85
2024-02-02T03:48:31.467Z,3.81
2024-02-02T03:51:03.710Z,3.84
2024-02-02T03:53:35.652Z,3.81
2024-02-02T03:56:09.796Z,3.70
2024-02-02T03:58:40.051Z,3.63
2024-02-02T04:01:12.232Z,3.57
2024-02-02T04:03:43.742Z,3.64
2024-02-02T04:06:15.050Z,3.54
2024-02-02T04:08:46.651Z,3.58
2024-02-02T04:11:18.255Z,3.58
2024-02-02T04:13:49.061Z,3.68
2024-02-02T04:16:19.521Z,3.70
2024-02-02T04:18:51.976Z,3.69
2024-02-02T04:21:25.237Z,3.67
2024-02-02T04:23:57.303Z,3.62
2024-02-02T04:26:28.867Z,3.39
2024-02-02T04:29:00.317Z,3.40
2024-02-02T04:31:30.978Z,3.42
2024-02-02T04:34:02.112Z,3.45
2024-02-02T04:36:33.755Z,3.52
2024-02-02T04:39:04.272Z,3.48
2024-02-02T04:41:36.444Z,3.58
2024-02-02T04:44:08.114Z,3.50
2024-02-02T04:46:39.267Z,3.51
2024-02-02T04:49:10.854Z,3.51
2024-02-02T04:51:42.300Z,3.50
2024-02-02T04:54:11.857Z,3.51
2024-02-02T04:56:43.940Z,3.32
2024-02-02T04:59:13.425Z,3.31
2024-02-02T05:01:43.057Z,3.33
2024-02-02T05:04:13.266Z,3.33
2024-02-02T05:06:42.915Z,3.36
2024-02-02T05:09:13.051Z,3.26
2024-02-02T05:11:44.120Z,3.24
2024-02-02T05:14:13.710Z,3.26
2024-02-02T05:16:43.092Z,3.24
2024-02-02T05:19:12.490Z,3.31
2024-02-02T05:21:42.993Z,3.28
2024-02-02T05:24:26.259Z,3.39
2024-02-02T05:27:04.708Z,3.48
2024-02-02T05:29:34.567Z,3.50
2024-02-02T05:32:04.272Z,3.51
2024-02-02T05:34:34.802Z,3.46
2024-02-02T05:37:04.786Z,3.50
2024-02-02T05:39:34.188Z,3.53
2024-02-02T05:42:05.767Z,3.48
2024-02-02T05:44:35.569Z,3.45
2024-02-02T05:47:05.372Z,3.43
2024-02-02T05:49:34.705Z,3.32
2024-02-02T05:52:04.370Z,3.36
2024-02-02T05:54:37.085Z,3.29
2024-02-02T05:57:08.405Z,3.36
2024-02-02T05:59:38.262Z,3.42
2024-02-02T06:02:07.800Z,3.35
2024-02-02T06:04:37.448Z,3.32
2024-02-02T06:07:07.512Z,3.44
2024-02-02T06:09:37.773Z,3.29
2024-02-02T06:12:09.726Z,3.37
2024-02-02T06:14:40.767Z,3.33
2024-02-02T06:17:11.710Z,3.34
2024-02-02T06:19:41.438Z,3.40
2024-02-02T06:22:11.522Z,3.23
2024-02-02T06:24:41.310Z,3.26
2024-02-02T06:27:12.314Z,3.25
2024-02-02T06:29:41.741Z,3.28
2024-02-02T06:32:11.568Z,3.41
2024-02-02T06:34:41.382Z,3.40
2024-02-02T06:37:10.695Z,3.37
2024-02-02T06:39:40.790Z,3.43
2024-02-02T06:42:12.434Z,3.49
2024-02-02T06:44:41.854Z,3.42
2024-02-02T06:47:11.131Z,3.52
2024-02-02T06:49:40.636Z,3.55
2024-02-02T06:52:10.199Z,3.58
2024-02-02T06:54:41.157Z,3.71
2024-02-02T06:57:14.348Z,3.72
2024-02-02T06:59:45.485Z,3.72
2024-02-02T07:02:21.842Z,3.75
2024-02-02T07:04:51.872Z,3.82
2024-02-02T07:07:21.514Z,3.82
2024-02-02T07:09:53.926Z,3.83
2024-02-02T07:12:57.753Z,3.85
2024-02-02T07:15:30.389Z,3.86
2024-02-02T07:18:00.866Z,3.88
2024-02-02T07:21:06.014Z,3.95
2024-02-02T07:23:38.853Z,3.98
2024-02-02T07:26:15.599Z,3.89
2024-02-02T07:28:46.640Z,3.91
2024-02-02T07:31:33.628Z,3.98
2024-02-02T07:34:10.262Z,4.04
2024-02-02T07:36:40.303Z,4.08
2024-02-02T07:39:24.355Z,4.19
2024-02-02T07:41:54.048Z,4.28
2024-02-02T07:44:25.413Z,4.49
2024-02-02T07:46:55.452Z,4.54
2024-02-02T07:49:26.068Z,4.75
2024-02-02T07:51:55.674Z,4.98
2024-02-02T07:54:25.797Z,5.19
2024-02-02T07:56:55.500Z,5.30
2024-02-02T07:59:27.907Z,5.68
2024-02-02T08:01:57.261Z,6.05
2024-02-02T08:04:27.347Z,6.09
2024-02-02T08:06:58.983Z,6.28
2024-02-02T08:09:29.374Z,6.14
2024-02-02T08:11:59.078Z,6.30
2024-02-02T08:14:31.045Z,6.33
2024-02-02T08:17:00.458Z,6.31
2024-02-02T08:19:30.874Z,5.91
2024-02-02T08:22:00.746Z,5.91
2024-02-02T08:24:30.406Z,5.52
2024-02-02T08:27:00.226Z,5.26
2024-02-02T08:29:31.948Z,5.27
2024-02-02T08:32:01.818Z,5.16
2024-02-02T08:34:32.052Z,4.99
2024-02-02T08:37:03.455Z,4.97
2024-02-02T08:39:36.771Z,5.22
2024-02-02T08:42:12.736Z,5.47
2024-02-02T08:44:44.672Z,5.62
2024-02-02T08:47:14.125Z,5.75
2024-02-02T08:49:57.431Z,5.52
2024-02-02T08:52:34.587Z,5.47
2024-02-02T08:55:08.094Z,5.51
2024-02-02T08:57:40.392Z,5.34
2024-02-02T09:00:41.207Z,5.27
2024-02-02T09:03:36.837Z,5.20
2024-02-02T09:06:09.488Z,5.27
2024-02-02T09:08:42.036Z,5.38
2024-02-02T09:11:21.934Z,5.43
2024-02-02T09:14:02.786Z,5.56
2024-02-02T09:16:42.153Z,5.79
2024-02-02T09:19:27.873Z,6.24
2024-02-02T09:21:59.366Z,6.80
2024-02-02T09:24:48.509Z,6.88
2024-02-02T09:27:29.610Z,7.12
2024-02-02T09:29:59.622Z,6.75
2024-02-02T09:32:33.138Z,6.69
2024-02-02T09:35:04.334Z,6.69
2024-02-02T09:37:45.884Z,6.81
2024-02-02T09:40:55.516Z,6.67
2024-02-02T09:43:34.996Z,6.87
2024-02-02T09:46:15.509Z,6.91
2024-02-02T09:49:01.465Z,7.10
2024-02-02T09:51:42.122Z,6.81
2024-02-02T09:54:30.068Z,6.76
2024-02-02T09:57:10.284Z,6.52
2024-02-02T09:59:52.740Z,6.30
2024-02-02T10:02:57.452Z,6.13
2024-02-02T10:05:38.080Z,6.11
2024-02-02T10:08:23.306Z,6.16
2024-02-02T10:11:09.577Z,6.05
2024-02-02T10:13:55.717Z,6.07
2024-02-02T10:16:41.180Z,5.98
2024-02-02T10:19:45.952Z,5.84
2024-02-02T10:22:40.402Z,5.70
2024-02-02T10:25:31.636Z,5.70
2024-02-02T10:28:17.214Z,5.85
2024-02-02T10:31:04.244Z,5.93
2024-02-02T10:33:46.310Z,5.91
2024-02-02T10:36:26.771Z,5.79
2024-02-02T10:39:14.304Z,5.55
2024-02-02T10:42:02.390Z,5.44
2024-02-02T10:44:45.629Z,5.35
2024-02-02T10:47:30.511Z,5.30
2024-02-02T10:50:16.412Z,5.31
2024-02-02T10:52:58.718Z,5.24
2024-02-02T10:55:46.035Z,5.32
2024-02-02T10:58:26.842Z,5.25
2024-02-02T11:01:07.423Z,5.14
2024-02-02T11:03:40.016Z,5.01
2024-02-02T11:06:26.474Z,5.06
2024-02-02T11:09:04.550Z,5.00
2024-02-02T11:11:38.787Z,4.95
2024-02-02T11:14:21.558Z,5.01
2024-02-02T11:17:01.059Z,5.06
2024-02-02T11:19:51.529Z,5.01
2024-02-02T11:22:28.405Z,4.90
2024-02-02T11:25:08.585Z,4.92
2024-02-02T11:27:50.147Z,4.98
2024-02-02T11:30:34.648Z,5.13
2024-02-02T11:33:30.099Z,4.98
2024-02-02T11:36:10.294Z,4.93
2024-02-02T11:38:53.014Z,4.95
2024-02-02T11:41:22.797Z,4.92
2024-02-02T11:43:54.823Z,4.93
2024-02-02T11:46:29.630Z,4.84
2024-02-02T11:49:13.333Z,4.81
2024-02-02T11:51:51.230Z,4.83
2024-02-02T11:54:28.432Z,4.66
2024-02-02T11:57:03.287Z,4.79
2024-02-02T11:59:36.364Z,4.79
2024-02-02T12:02:23.740Z,4.83
2024-02-02T12:04:59.681Z,4.80
2024-02-02T12:07:44.662Z,4.71
2024-02-02T12:10:22.246Z,4.76
2024-02-02T12:13:01.354Z,4.79
2024-02-02T12:15:32.772Z,4.72
2024-02-02T12:18:04.357Z,4.62
2024-02-02T12:20:35.420Z,4.73
2024-02-02T12:23:07.121Z,4.70
2024-02-02T12:25:37.378Z,4.71
2024-02-02T12:28:07.834Z,4.75
2024-02-02T12:30:42.626Z,4.65
2024-02-02T12:33:14.896Z,4.62
2024-02-02T12:35:47.986Z,4.70
2024-02-02T12:38:22.092Z,4.80
2024-02-02T12:40:53.560Z,4.68
2024-02-02T12:43:27.337Z,4.61
2024-02-02T12:45:58.489Z,4.79
2024-02-02T12:48:28.723Z,4.80
2024-02-02T12:50:58.363Z,4.83
2024-02-02T12:53:28.380Z,4.87
2024-02-02T12:55:58.092Z,4.85
2024-02-02T12:58:29.598Z,4.83
2024-02-02T13:01:00.483Z,4.88
2024-02-02T13:03:40.942Z,4.85
2024-02-02T13:06:16.568Z,4.84
2024-02-02T13:08:48.062Z,4.93
2024-02-02T13:11:26.832Z,4.73
2024-02-02T13:14:07.900Z,4.71
2024-02-02T13:16:39.527Z,4.69
2024-02-02T13:19:40.545Z,4.68
2024-02-02T13:22:21.088Z,4.64
2024-02-02T13:24:55.221Z,4.68
2024-02-02T13:27:32.293Z,4.72
2024-02-02T13:30:04.669Z,4.75
2024-02-02T13:32:39.821Z,4.70
2024-02-02T13:35:10.901Z,4.65
2024-02-02T13:37:45.086Z,4.65
2024-02-02T13:40:15.174Z,4.65
2024-02-02T13:42:47.707Z,4.63
2024-02-02T13:45:18.741Z,4.71
2024-02-02T13:47:57.756Z,4.67
2024-02-02T13:50:40.244Z,4.64
2024-02-02T13:53:11.154Z,4.66
2024-02-02T13:55:43.233Z,4.56
2024-02-02T13:58:16.577Z,4.62
2024-02-02T14:00:47.683Z,4.63
2024-02-02T14:03:22.835Z,4.68
2024-02-02T14:05:53.364Z,4.74
2024-02-02T14:08:23.108Z,4.72
2024-02-02T14:10:53.015Z,4.71
2024-02-02T14:13:22.708Z,4.73
2024-02-02T14:15:57.082Z,4.62
2024-02-02T14:18:28.278Z,4.65
2024-02-02T14:20:58.764Z,4.77
2024-02-02T14:23:28.903Z,4.73
2024-02-02T14:26:08.745Z,4.77
2024-02-02T14:28:41.765Z,4.70
2024-02-02T14:31:11.801Z,4.72
2024-02-02T14:33:44.480Z,4.82
2024-02-02T14:36:16.067Z,4.72
2024-02-02T14:38:46.775Z,4.70
2024-02-02T14:41:17.486Z,4.78
2024-02-02T14:43:47.038Z,4.80
2024-02-02T14:46:22.046Z,4.75
2024-02-02T14:48:53.249Z,4.80
2024-02-02T14:51:22.863Z,4.77
2024-02-02T14:53:53.328Z,4.76
2024-02-02T14:56:23.397Z,4.72
2024-02-02T14:58:54.441Z,4.74
2024-02-02T15:01:29.602Z,4.77
2024-02-02T15:04:01.743Z,4.89
2024-02-02T15:06:31.597Z,4.84
2024-02-02T15:09:07.241Z,4.91
2024-02-02T15:11:36.986Z,4.97
2024-02-02T15:14:06.848Z,4.99
2024-02-02T15:16:36.109Z,4.97
2024-02-02T15:19:07.362Z,4.80
2024-02-02T15:21:37.424Z,4.85
2024-02-02T15:24:08.511Z,4.75
2024-02-02T15:26:40.669Z,4.89
2024-02-02T15:29:10.680Z,4.90
2024-02-02T15:31:40.884Z,4.90
2024-02-02T15:34:12.792Z,4.87
2024-02-02T15:36:42.995Z,4.93
2024-02-02T15:39:23.601Z,5.02
2024-02-02T15:42:00.258Z,5.01
2024-02-02T15:44:30.270Z,4.98
2024-02-02T15:47:01.212Z,5.00
2024-02-02T15:49:32.410Z,5.01
2024-02-02T15:52:01.959Z,4.97
2024-02-02T15:54:32.764Z,4.99
2024-02-02T15:57:02.562Z,5.03
2024-02-02T15:59:32.367Z,4.93
2024-02-02T16:02:01.848Z,4.88
2024-02-02T16:04:33.934Z,4.90
2024-02-02T16:07:06.466Z,4.80
2024-02-02T16:09:39.583Z,4.80
2024-02-02T16:12:11.534Z,4.79
2024-02-02T16:14:42.748Z,4.76
2024-02-02T16:17:12.472Z,4.71
2024-02-02T16:19:43.673Z,4.60
2024-02-02T16:22:13.235Z,4.59
2024-02-02T16:24:42.497Z,4.56
2024-02-02T16:27:12.209Z,4.60
2024-02-02T16:29:42.669Z,4.51
2024-02-02T16:32:12.020Z,4.57
2024-02-02T16:34:43.869Z,4.47
2024-02-02T16:37:13.426Z,4.40
2024-02-02T16:39:43.192Z,4.49
2024-02-02T16:42:14.267Z,4.50
2024-02-02T16:44:44.049Z,4.47
2024-02-02T16:47:14.545Z,4.44
2024-02-02T16:49:48.307Z,4.43
2024-02-02T16:52:18.298Z,4.44
2024-02-02T16:54:48.995Z,4.37
2024-02-02T16:57:18.761Z,4.40
2024-02-02T16:59:49.295Z,4.22
2024-02-02T17:02:19.146Z,4.23
2024-02-02T17:04:50.346Z,4.17
2024-02-02T17:07:20.495Z,4.07
2024-02-02T17:09:50.612Z,4.06
2024-02-02T17:12:22.037Z,4.09
2024-02-02T17:14:53.104Z,4.06
2024-02-02T17:17:22.569Z,4.14
2024-02-02T17:19:54.533Z,4.09
2024-02-02T17:22:24.770Z,4.08
2024-02-02T17:24:55.130Z,4.05
2024-02-02T17:27:25.745Z,4.17
2024-02-02T17:29:55.763Z,4.04
2024-02-02T17:32:25.844Z,4.04
2024-02-02T17:34:58.370Z,4.18
2024-02-02T17:37:28.414Z,4.15
2024-02-02T17:39:59.145Z,4.15
2024-02-02T17:42:29.685Z,4.23
2024-02-02T17:45:01.544Z,4.14
2024-02-02T17:47:33.578Z,4.13
2024-02-02T17:50:06.874Z,4.15
2024-02-02T17:52:36.447Z,4.08
2024-02-02T17:55:06.818Z,4.11
2024-02-02T17:57:37.230Z,4.10
2024-02-02T18:00:08.167Z,4.10
2024-02-02T18:02:41.748Z,4.07
2024-02-02T18:05:13.184Z,4.06
2024-02-02T18:07:47.921Z,4.03
2024-02-02T18:10:18.459Z,4.06
2024-02-02T18:12:49.590Z,3.94
2024-02-02T18:15:20.032Z,3.94
2024-02-02T18:17:50.132Z,3.92
2024-02-02T18:20:24.473Z,3.98
2024-02-02T18:22:54.609Z,3.94
2024-02-02T18:25:26.708Z,3.91
2024-02-02T18:27:56.672Z,3.92
2024-02-02T18:30:27.454Z,3.93
2024-02-02T18:32:57.487Z,3.86
2024-02-02T18:35:29.122Z,3.72
2024-02-02T18:38:00.209Z,3.72
2024-02-02T18:40:29.944Z,3.75
2024-02-02T18:43:00.116Z,3.75
2024-02-02T18:45:29.424Z,3.71
2024-02-02T18:47:59.430Z,3.61
2024-02-02T18:50:32.600Z,3.55
2024-02-02T18:53:01.920Z,3.55
2024-02-02T18:55:32.244Z,3.48
2024-02-02T18:58:01.680Z,3.60
2024-02-02T19:00:32.320Z,3.66
2024-02-02T19:03:02.047Z,3.67
2024-02-02T19:05:36.165Z,3.59
2024-02-02T19:08:06.122Z,3.57
2024-02-02T19:10:35.582Z,3.57
2024-02-02T19:13:05.929Z,3.60
2024-02-02T19:15:35.298Z,3.56
2024-02-02T19:18:04.985Z,3.57
2024-02-02T19:20:40.271Z,3.47
2024-02-02T19:23:09.664Z,3.60
2024-02-02T19:25:39.364Z,3.48
2024-02-02T19:28:09.655Z,3.39
2024-02-02T19:30:39.442Z,3.39
2024-02-02T19:33:09.132Z,3.28
2024-02-02T19:35:40.495Z,3.33
2024-02-02T19:38:10.486Z,3.32
2024-02-02T19:40:41.292Z,3.25
2024-02-02T19:43:10.678Z,3.36
2024-02-02T19:45:42.064Z,3.32
2024-02-02T19:48:11.933Z,3.32
2024-02-02T19:50:43.315Z,3.23
2024-02-02T19:53:16.212Z,3.10
2024-02-02T19:55:45.946Z,3.20
2024-02-02T19:58:16.629Z,3.24
2024-02-02T20:00:47.229Z,3.03
2024-02-02T20:03:17.396Z,3.12
2024-02-02T20:05:48.312Z,3.11
2024-02-02T20:08:17.875Z,3.04
2024-02-02T20:10:47.649Z,3.20
2024-02-02T20:13:17.716Z,3.16
2024-02-02T20:15:47.588Z,3.17
2024-02-02T20:18:18.855Z,3.14
2024-02-02T20:20:54.988Z,3.09
2024-02-02T20:23:24.262Z,3.06
2024-02-02T20:25:55.330Z,3.10
2024-02-02T20:28:25.121Z,3.11
2024-02-02T20:30:54.568Z,3.08
2024-02-02T20:33:23.873Z,3.10
2024-02-02T20:35:55.300Z,2.99
2024-02-02T20:38:25.052Z,3.06
2024-02-02T20:40:54.566Z,2.98
2024-02-02T20:43:24.023Z,2.97
2024-02-02T20:45:53.764Z,2.95
2024-02-02T20:48:25.096Z,3.00
2024-02-02T20:50:56.325Z,2.98
2024-02-02T20:53:25.870Z,2.96
2024-02-02T20:55:55.190Z,3.00
2024-02-02T20:58:25.405Z,2.97
2024-02-02T21:00:55.783Z,2.90
2024-02-02T21:03:26.198Z,2.92
2024-02-02T21:06:00.110Z,2.88
2024-02-02T21:08:30.101Z,2.93
2024-02-02T21:10:59.279Z,2.86
2024-02-02T21:13:29.595Z,2.73
2024-02-02T21:15:59.767Z,2.69
2024-02-02T21:18:29.353Z,2.53
2024-02-02T21:21:01.295Z,2.47
2024-02-02T21:23:30.917Z,2.41
2024-02-02T21:26:00.740Z,2.42
2024-02-02T21:28:30.111Z,2.35
2024-02-02T21:31:00.216Z,2.23
2024-02-02T21:33:30.045Z,2.18
2024-02-02T21:36:04.548Z,2.13
2024-02-02T21:38:34.496Z,2.12
2024-02-02T21:41:04.620Z,2.16
2024-02-02T21:43:34.253Z,2.18
2024-02-02T21:46:04.367Z,2.23
2024-02-02T21:48:35.420Z,2.12
2024-02-02T21:51:09.739Z,2.11
2024-02-02T21:53:39.440Z,2.16
2024-02-02T21:56:09.631Z,2.18
2024-02-02T21:58:38.885Z,2.08
2024-02-02T22:01:08.453Z,2.03
2024-02-02T22:03:40.808Z,1.98
2024-02-02T22:06:12.394Z,1.90
2024-02-02T22:08:41.817Z,1.80
2024-02-02T22:11:14.791Z,1.84
2024-02-02T22:13:48.987Z,1.71
2024-02-02T22:16:18.473Z,1.74
2024-02-02T22:18:50.307Z,1.64
2024-02-02T22:21:26.437Z,1.62
2024-02-02T22:23:56.147Z,1.55
2024-02-02T22:26:25.625Z,1.54
2024-02-02T22:28:55.410Z,1.60
2024-02-02T22:31:24.883Z,1.40
2024-02-02T22:33:55.089Z,1.51
2024-02-02T22:36:26.665Z,1.35
2024-02-02T22:38:56.380Z,1.57
2024-02-02T22:41:33.609Z,1.53
2024-02-02T22:44:05.078Z,1.62
2024-02-02T22:46:34.775Z,1.62
2024-02-02T22:49:05.416Z,1.48
2024-02-02T22:51:37.015Z,1.55
2024-02-02T22:54:07.012Z,1.52
2024-02-02T22:56:36.333Z,1.53
2024-02-02T22:59:06.135Z,1.32
2024-02-02T23:01:35.799Z,1.44
2024-02-02T23:04:05.519Z,1.42
2024-02-02T23:06:36.702Z,1.39
2024-02-02T23:09:06.292Z,1.18
2024-02-02T23:11:35.997Z,1.31
2024-02-02T23:14:05.602Z,1.30
2024-02-02T23:16:34.979Z,1.25
2024-02-02T23:19:04.505Z,1.27
2024-02-02T23:21:35.523Z,1.33
2024-02-02T23:24:06.745Z,1.28
2024-02-02T23:26:37.116Z,1.26
2024-02-02T23:29:07.928Z,1.19
2024-02-02T23:31:37.605Z,1.07
2024-02-02T23:34:07.065Z,1.12
2024-02-02T23:36:36.801Z,1.05
2024-02-02T23:39:07.864Z,0.93
2024-02-02T23:41:37.752Z,0.94
2024-02-02T23:44:07.365Z,0.82
2024-02-02T23:46:37.388Z,0.82
2024-02-02T23:49:07.477Z,0.77
2024-02-02T23:51:37.190Z,0.72
2024-02-02T23:54:08.296Z,0.73
2024-02-02T23:56:37.915Z,0.73
2024-02-02T23:59:07.068Z,0.78
